Time;durP1;ratioP1;P1;durP2;ratioP2;P2;SDS_P1;SDS_P2;PMS_P1;PMS_P2;Temp;Humidity;BMP_temperature;BMP_pressure;BME280_temperature;BME280_humidity;BME280_pressure;Samples;Min_cycle;Max_cycle;Signal;HPM_P1;HPM_P2
2022/04/10 00:02:23;;;;;;;10.98;2.10;;;;;;;3.15;72.33;99741.56;4994726;28;20061;-60
2022/04/10 00:04:49;;;;;;;7.28;2.00;;;;;;;3.13;72.76;99739.84;4994750;28;20042;-60
2022/04/10 00:07:18;;;;;;;5.90;1.95;;;;;;;3.13;72.68;99737.28;4994998;28;20050;-60
2022/04/10 00:09:46;;;;;;;7.57;1.42;;;;;;;3.13;72.40;99743.25;4994727;28;20062;-61
2022/04/10 00:12:12;;;;;;;5.75;1.83;;;;;;;3.13;73.18;99742.41;4994493;28;20054;-60
2022/04/10 00:14:39;;;;;;;4.78;1.95;;;;;;;3.13;72.92;99743.25;4994344;28;20057;-60
2022/04/10 00:17:05;;;;;;;9.20;1.83;;;;;;;3.12;73.17;99735.53;4995146;28;20125;-60
2022/04/10 00:19:32;;;;;;;4.43;1.58;;;;;;;3.11;73.11;99746.63;4995219;28;20046;-61
2022/04/10 00:22:00;;;;;;;5.40;1.98;;;;;;;3.13;73.12;99735.59;4994902;28;20052;-60
2022/04/10 00:24:28;;;;;;;10.23;2.83;;;;;;;3.13;73.23;99743.25;4994961;28;20050;-60
2022/04/10 00:26:58;;;;;;;10.25;2.90;;;;;;;3.11;72.49;99744.94;4994578;28;20065;-60
2022/04/10 00:29:26;;;;;;;6.93;1.60;;;;;;;3.09;73.18;99736.38;4994870;28;20141;-60
2022/04/10 00:31:52;;;;;;;7.30;1.50;;;;;;;3.10;73.09;99735.53;4994782;28;20065;-60
2022/04/10 00:34:20;;;;;;;6.90;1.92;;;;;;;3.12;73.39;99740.66;4994833;28;20042;-60
2022/04/10 00:36:47;;;;;;;13.70;2.13;;;;;;;3.12;73.46;99726.19;4994688;28;20054;-60
2022/04/10 00:39:13;;;;;;;6.85;2.38;;;;;;;3.11;72.95;99742.38;4994320;28;20535;-60
2022/04/10 00:41:41;;;;;;;10.10;2.10;;;;;;;3.10;73.57;99738.09;4994385;28;20383;-60
2022/04/10 00:44:10;;;;;;;6.80;1.70;;;;;;;3.10;73.66;99732.13;4994511;28;20058;-60
2022/04/10 00:46:38;;;;;;;4.55;1.60;;;;;;;3.09;73.12;99736.38;4994588;28;20069;-60
2022/04/10 00:49:05;;;;;;;8.30;1.92;;;;;;;3.08;73.14;99747.47;4994567;28;20069;-60
2022/04/10 00:51:43;;;;;;;9.70;1.90;;;;;;;3.07;73.75;99748.31;4994439;28;20443;-60
2022/04/10 00:54:12;;;;;;;5.75;1.58;;;;;;;3.08;73.35;99749.19;4994292;28;20384;-60
2022/04/10 00:56:41;;;;;;;5.40;2.00;;;;;;;3.07;73.51;99743.19;4994285;28;20050;-61
2022/04/10 00:59:09;;;;;;;6.30;1.48;;;;;;;3.07;73.38;99738.06;4993758;28;20380;-59
2022/04/10 01:01:36;;;;;;;6.93;2.28;;;;;;;3.09;73.21;99736.38;4994256;28;20054;-60
2022/04/10 01:04:05;;;;;;;9.63;1.88;;;;;;;3.09;73.40;99735.53;4993822;28;20054;-59
2022/04/10 01:06:33;;;;;;;4.05;1.35;;;;;;;3.08;73.82;99731.25;4994015;28;20061;-60
2022/04/10 01:09:02;;;;;;;7.32;2.00;;;;;;;3.10;73.84;99743.22;4994064;28;20061;-59
2022/04/10 01:11:30;;;;;;;12.13;2.65;;;;;;;3.10;73.50;99732.13;4993952;28;20065;-60
2022/04/10 01:13:58;;;;;;;5.85;1.88;;;;;;;3.12;73.46;99745.78;4993698;28;20062;-60
2022/04/10 01:16:25;;;;;;;8.07;2.33;;;;;;;3.12;74.10;99746.66;4993439;28;20062;-60
2022/04/10 01:18:52;;;;;;;5.22;2.58;;;;;;;3.11;74.05;99738.94;4993922;28;20055;-61
2022/04/10 01:21:23;;;;;;;5.95;1.23;;;;;;;3.14;74.25;99744.97;4994105;28;20085;-61
2022/04/10 01:23:52;;;;;;;7.82;1.98;;;;;;;3.16;74.62;99748.41;4994224;28;20081;-60
2022/04/10 01:26:18;;;;;;;7.70;1.85;;;;;;;3.19;74.15;99751.81;4993580;28;20430;-61
2022/04/10 01:29:03;;;;;;;5.60;1.45;;;;;;;3.19;75.04;99751.81;4993904;28;20062;-61
2022/04/10 01:31:32;;;;;;;5.85;1.63;;;;;;;3.17;74.91;99747.56;4993832;28;20054;-61
2022/04/10 01:34:01;;;;;;;6.60;1.83;;;;;;;3.17;75.02;99754.38;4993561;28;20061;-60
2022/04/10 01:36:30;;;;;;;6.95;1.50;;;;;;;3.18;74.94;99750.97;4993122;28;20599;-60
2022/04/10 01:39:00;;;;;;;10.18;2.33;;;;;;;3.18;74.74;99758.66;4993316;28;20383;-60
2022/04/10 01:41:28;;;;;;;5.82;1.48;;;;;;;3.16;75.18;99766.34;4994396;28;20073;-60
2022/04/10 01:43:58;;;;;;;6.95;1.67;;;;;;;3.15;74.79;99763.75;4993539;28;20089;-60
2022/04/10 01:46:27;;;;;;;5.60;1.50;;;;;;;3.12;74.67;99767.16;4993475;28;20069;-59
2022/04/10 01:48:56;;;;;;;7.50;1.80;;;;;;;3.13;74.67;99774.00;4996853;28;20498;-60
2022/04/10 01:51:23;;;;;;;6.13;1.63;;;;;;;3.15;74.71;99767.19;4997216;28;20050;-60
2022/04/10 01:53:51;;;;;;;7.07;1.70;;;;;;;3.15;75.31;99762.06;4997812;28;20050;-60
2022/04/10 01:56:19;;;;;;;8.25;2.00;;;;;;;3.15;75.13;99766.31;4997669;28;20062;-60
2022/04/10 01:58:47;;;;;;;7.85;1.85;;;;;;;3.19;74.85;99777.44;4997827;28;20062;-60
2022/04/10 02:01:17;;;;;;;3.30;1.50;;;;;;;3.22;74.38;99777.47;4997120;28;20086;-60
2022/04/10 02:03:45;;;;;;;7.35;1.70;;;;;;;3.25;74.55;99782.59;4997454;28;20047;-60
2022/04/10 02:06:12;;;;;;;7.20;2.88;;;;;;;3.27;73.90;99780.91;4997039;28;20475;-60
2022/04/10 02:08:41;;;;;;;9.80;2.05;;;;;;;3.26;74.10;99764.66;4997495;28;20058;-60
2022/04/10 02:11:10;;;;;;;5.20;1.63;;;;;;;3.29;73.44;99764.69;4997229;28;20061;-60
2022/04/10 02:13:40;;;;;;;4.57;1.88;;;;;;;3.32;73.63;99763.84;4997454;28;20113;-61
2022/04/10 02:16:08;;;;;;;7.28;1.90;;;;;;;3.35;73.29;99774.13;4996462;28;20095;-60
2022/04/10 02:18:35;;;;;;;4.88;1.77;;;;;;;3.35;73.30;99772.41;4997290;28;20452;-59
2022/04/10 02:21:02;;;;;;;5.70;1.90;;;;;;;3.37;73.36;99782.66;4997184;28;20058;-59
2022/04/10 02:23:30;;;;;;;8.25;1.73;;;;;;;3.38;72.42;99784.38;4997162;28;20055;-60
2022/04/10 02:25:57;;;;;;;5.35;1.58;;;;;;;3.42;72.58;99775.84;4997135;28;20050;-60
2022/04/10 02:28:23;;;;;;;4.38;1.63;;;;;;;3.44;71.58;99774.16;4996857;28;20467;-60
2022/04/10 02:30:52;;;;;;;7.47;1.80;;;;;;;3.44;71.50;99775.00;4996980;28;20054;-60
2022/04/10 02:33:19;;;;;;;6.28;1.60;;;;;;;3.43;71.49;99773.31;4996711;28;20058;-61
2022/04/10 02:35:47;;;;;;;3.75;1.40;;;;;;;3.44;70.79;99775.00;4997010;28;20069;-60
2022/04/10 02:38:16;;;;;;;5.10;1.40;;;;;;;3.45;70.71;99786.13;4997059;28;20058;-61
2022/04/10 02:40:43;;;;;;;8.02;2.42;;;;;;;3.47;70.64;99771.59;4997006;28;20093;-59
2022/04/10 02:43:10;;;;;;;8.10;1.92;;;;;;;3.47;71.11;99785.28;4996868;28;20058;-60
2022/04/10 02:45:36;;;;;;;5.15;1.42;;;;;;;3.46;70.77;99792.94;4982335;28;20079;-61
2022/04/10 02:48:05;;;;;;;6.43;1.75;;;;;;;3.45;71.21;99786.13;4977018;28;20063;-61
2022/04/10 02:50:31;;;;;;;8.82;2.33;;;;;;;3.48;70.51;99778.44;4977254;28;20055;-61
2022/04/10 02:52:57;;;;;;;5.15;1.65;;;;;;;3.49;70.84;99790.41;4988730;28;20083;-61
2022/04/10 02:55:24;;;;;;;7.20;1.33;;;;;;;3.52;71.19;99781.88;4996660;28;20042;-61
2022/04/10 02:57:50;;;;;;;4.90;1.55;;;;;;;3.50;71.04;99784.44;4996636;28;20081;-60
2022/04/10 03:00:18;;;;;;;6.05;1.80;;;;;;;3.50;71.27;99769.06;4995247;28;20053;-60
2022/04/10 03:02:46;;;;;;;6.63;1.70;;;;;;;3.51;71.62;99788.72;4996582;28;20066;-59
2022/04/10 03:05:15;;;;;;;3.65;1.20;;;;;;;3.53;72.18;99784.44;4996497;28;20137;-60
2022/04/10 03:07:43;;;;;;;8.13;1.92;;;;;;;3.54;71.50;99781.03;4996278;28;20395;-60
2022/04/10 03:10:10;;;;;;;8.50;1.90;;;;;;;3.51;72.02;99788.72;4996317;28;20058;-61
2022/04/10 03:12:38;;;;;;;10.60;2.40;;;;;;;3.54;71.71;99786.16;4996182;28;20061;-60
2022/04/10 03:15:07;;;;;;;8.55;2.13;;;;;;;3.52;72.42;99782.72;4995963;28;20058;-59
2022/04/10 03:17:34;;;;;;;10.65;2.10;;;;;;;3.48;72.67;99792.13;4996254;28;20077;-60
2022/04/10 03:20:00;;;;;;;8.43;1.60;;;;;;;3.47;73.39;99799.78;4996173;28;20109;-61
2022/04/10 03:22:28;;;;;;;7.72;1.75;;;;;;;3.46;75.23;99793.81;4996097;28;20117;-60
2022/04/10 03:24:55;;;;;;;8.88;2.13;;;;;;;3.42;76.13;99796.34;4995785;28;20380;-60
2022/04/10 03:27:23;;;;;;;4.55;1.58;;;;;;;3.39;76.33;99797.19;4995676;28;20062;-60
2022/04/10 03:29:51;;;;;;;7.90;2.95;;;;;;;3.36;75.87;99788.63;4995722;28;20081;-61
2022/04/10 03:32:18;;;;;;;8.35;1.75;;;;;;;3.32;76.52;99794.59;4995723;28;20065;-59
2022/04/10 03:34:44;;;;;;;8.35;1.70;;;;;;;3.29;76.02;99800.56;4995900;28;20065;-61
2022/04/10 03:37:11;;;;;;;5.85;1.70;;;;;;;3.26;76.53;99799.69;4995419;28;20368;-61
2022/04/10 03:39:40;;;;;;;8.10;2.28;;;;;;;3.25;76.16;99800.53;4995682;28;20054;-60
2022/04/10 03:42:09;;;;;;;10.77;1.77;;;;;;;3.25;76.16;99800.53;4995336;28;20069;-61
2022/04/10 03:44:35;;;;;;;11.48;1.98;;;;;;;3.27;75.60;99811.63;4995059;28;20368;-61
2022/04/10 03:47:01;;;;;;;7.22;1.75;;;;;;;3.26;76.11;99809.91;4995449;28;20057;-60
2022/04/10 03:49:28;;;;;;;7.35;1.77;;;;;;;3.27;75.54;99804.81;4995931;28;20046;-61
2022/04/10 03:51:54;;;;;;;7.82;1.63;;;;;;;3.28;75.25;99814.22;4995907;28;20046;-59
2022/04/10 03:54:21;;;;;;;5.80;1.80;;;;;;;3.27;74.90;99807.38;4995944;28;20062;-60
2022/04/10 03:56:48;;;;;;;4.18;1.85;;;;;;;3.28;74.11;99819.31;4995723;28;20046;-60
2022/04/10 03:59:15;;;;;;;7.07;1.30;;;;;;;3.30;73.75;99827.03;4995563;28;20348;-61
2022/04/10 04:01:41;;;;;;;7.70;1.48;;;;;;;3.31;74.12;99823.63;4995872;28;20058;-60
2022/04/10 04:04:09;;;;;;;7.25;1.27;;;;;;;3.29;73.99;99831.28;4995587;28;20066;-60
2022/04/10 04:06:35;;;;;;;3.83;1.27;;;;;;;3.32;73.94;99838.13;4995198;28;20356;-60
2022/04/10 04:09:02;;;;;;;5.75;1.55;;;;;;;3.33;73.80;99837.28;4995588;28;20057;-60
2022/04/10 04:11:28;;;;;;;8.57;1.17;;;;;;;3.33;74.01;99847.53;4994864;28;20046;-60
2022/04/10 04:13:56;;;;;;;6.70;1.27;;;;;;;3.34;74.19;99854.38;4995424;28;20057;-60
2022/04/10 04:16:23;;;;;;;3.13;0.90;;;;;;;3.32;74.20;99853.50;4994750;28;20354;-58
2022/04/10 04:18:50;;;;;;;9.98;1.35;;;;;;;3.34;74.90;99847.53;4994937;28;20495;-59
2022/04/10 04:21:16;;;;;;;4.15;1.10;;;;;;;3.33;74.82;99860.34;4995074;28;20054;-58
2022/04/10 04:23:42;;;;;;;3.03;1.05;;;;;;;3.32;75.39;99874.84;4995262;28;20065;-59
2022/04/10 04:26:10;;;;;;;6.65;1.20;;;;;;;3.30;75.30;99878.25;4994715;28;20054;-60
2022/04/10 04:28:36;;;;;;;2.78;1.30;;;;;;;3.33;75.31;99868.03;4994983;28;20051;-60
2022/04/10 04:31:04;;;;;;;10.57;1.63;;;;;;;3.34;75.28;99880.84;4995106;28;20092;-61
2022/04/10 04:33:30;;;;;;;4.97;1.00;;;;;;;3.37;75.46;99880.00;4995028;28;20050;-60
2022/04/10 04:35:57;;;;;;;5.50;1.40;;;;;;;3.40;74.64;99885.16;4994642;28;20440;-59
2022/04/10 04:38:23;;;;;;;4.75;1.60;;;;;;;3.46;74.53;99895.44;4995001;28;20054;-61
2022/04/10 04:40:50;;;;;;;3.08;1.17;;;;;;;3.53;74.58;99886.94;4994623;28;20490;-61
2022/04/10 04:43:16;;;;;;;7.10;1.52;;;;;;;3.70;74.11;99895.63;4994983;28;20054;-61
2022/04/10 04:45:43;;;;;;;4.40;1.13;;;;;;;3.92;73.74;99886.34;4994803;28;20049;-61
2022/04/10 04:48:11;;;;;;;9.02;1.67;;;;;;;4.21;72.93;99896.75;4994769;28;20055;-61
2022/04/10 04:50:37;;;;;;;9.43;2.50;;;;;;;4.54;71.87;99902.81;4994779;28;20062;-61
2022/04/10 04:53:04;;;;;;;12.25;1.92;;;;;;;4.87;70.06;99902.91;4994636;28;20455;-61
2022/04/10 04:55:30;;;;;;;6.25;1.65;;;;;;;5.25;69.22;99899.53;4994834;28;20054;-61
2022/04/10 04:57:57;;;;;;;6.25;1.70;;;;;;;5.54;67.04;99918.34;4994521;28;20065;-61
2022/04/10 05:00:23;;;;;;;7.80;1.50;;;;;;;5.82;66.03;99923.47;4994708;28;20050;-60
2022/04/10 05:02:50;;;;;;;5.30;1.33;;;;;;;6.09;65.40;99923.44;4994752;28;20050;-60
2022/04/10 05:05:18;;;;;;;8.20;1.50;;;;;;;6.35;64.03;99919.94;4994368;28;20050;-61
2022/04/10 05:07:44;;;;;;;5.93;1.38;;;;;;;6.51;62.70;99926.72;4994558;28;20057;-61
2022/04/10 05:10:12;;;;;;;7.63;1.23;;;;;;;6.63;62.08;99926.66;4994555;28;20050;-60
2022/04/10 05:12:39;;;;;;;6.18;1.40;;;;;;;6.72;61.28;99936.03;4994532;28;20170;-59
2022/04/10 05:15:08;;;;;;;5.03;0.95;;;;;;;6.87;60.41;99941.13;4994176;28;20149;-60
2022/04/10 05:17:35;;;;;;;5.63;1.17;;;;;;;6.95;59.95;99955.66;4994580;28;20081;-60
2022/04/10 05:20:03;;;;;;;4.82;0.90;;;;;;;7.02;60.36;99965.94;4994284;28;20050;-60
2022/04/10 05:22:43;;;;;;;6.78;1.35;;;;;;;7.11;61.20;99956.44;4993751;28;20058;-60
2022/04/10 05:25:10;;;;;;;4.53;1.08;;;;;;;7.25;62.11;99961.47;4994256;28;20116;-61
2022/04/10 05:27:36;;;;;;;4.93;1.10;;;;;;;7.28;62.06;99948.56;4994242;28;20050;-61
2022/04/10 05:30:03;;;;;;;5.15;1.38;;;;;;;7.42;60.96;99941.59;4994297;28;20054;-61
2022/04/10 05:32:30;;;;;;;2.92;1.13;;;;;;;7.62;59.98;99963.78;4994170;28;20058;-61
2022/04/10 05:34:56;;;;;;;6.55;2.70;;;;;;;7.83;59.26;99973.94;4993738;28;20046;-61
2022/04/10 05:37:23;;;;;;;7.13;1.50;;;;;;;8.05;57.93;99965.09;4994511;28;20152;-61
2022/04/10 05:39:50;;;;;;;7.28;1.40;;;;;;;8.31;56.47;99956.22;4993834;28;20054;-60
2022/04/10 05:42:17;;;;;;;2.70;0.88;;;;;;;8.65;56.23;99962.72;4994182;28;20081;-61
2022/04/10 05:44:43;;;;;;;6.20;1.45;;;;;;;8.99;55.02;99962.28;4994155;28;20050;-61
2022/04/10 05:47:10;;;;;;;6.07;1.45;;;;;;;8.98;54.24;99965.75;4994109;28;20069;-60
2022/04/10 05:49:36;;;;;;;7.50;1.50;;;;;;;9.29;53.25;99971.31;4994102;28;20049;-61
2022/04/10 05:52:03;;;;;;;5.95;1.20;;;;;;;9.58;52.14;99984.69;4994187;28;20046;-61
2022/04/10 05:54:29;;;;;;;6.85;2.28;;;;;;;9.87;51.82;99991.94;4993562;28;20419;-61
2022/04/10 05:56:57;;;;;;;6.82;1.92;;;;;;;10.17;50.63;99984.53;4994075;28;20051;-61
2022/04/10 05:59:23;;;;;;;5.93;1.48;;;;;;;10.39;50.14;99978.06;4992780;28;20057;-60
2022/04/10 06:01:50;;;;;;;6.00;1.13;;;;;;;10.58;50.34;99971.66;4992707;28;20054;-61
2022/04/10 06:04:17;;;;;;;4.32;1.25;;;;;;;10.66;48.97;99985.31;4993109;28;20050;-61
2022/04/10 06:06:44;;;;;;;5.75;1.75;;;;;;;10.80;48.91;100000.56;4993835;28;20055;-62
2022/04/10 06:09:10;;;;;;;5.07;1.48;;;;;;;10.83;48.35;99992.75;4993662;28;20054;-61
2022/04/10 06:11:37;;;;;;;4.55;1.60;;;;;;;10.73;47.74;99991.22;4993636;28;20124;-60
2022/04/10 06:14:05;;;;;;;4.82;1.52;;;;;;;10.70;48.60;99997.34;4993574;28;20054;-61
2022/04/10 06:16:31;;;;;;;6.30;1.50;;;;;;;10.84;48.34;99998.78;4993396;28;20073;-61
2022/04/10 06:18:57;;;;;;;6.90;2.00;;;;;;;11.14;47.06;100003.31;4993551;28;20092;-61
2022/04/10 06:21:24;;;;;;;6.78;1.77;;;;;;;11.27;46.71;99993.50;4993298;28;20486;-61
2022/04/10 06:23:50;;;;;;;4.30;1.50;;;;;;;11.54;46.19;100012.81;4993839;28;20054;-62
2022/04/10 06:26:18;;;;;;;7.80;1.80;;;;;;;11.78;45.67;100008.78;4993288;28;20535;-61
2022/04/10 06:28:45;;;;;;;6.68;2.05;;;;;;;12.12;44.42;100003.59;4993774;28;20050;-61
2022/04/10 06:31:12;;;;;;;6.45;1.80;;;;;;;12.39;43.51;100015.84;4993514;28;20160;-61
2022/04/10 06:33:39;;;;;;;8.95;2.78;;;;;;;12.72;42.59;100013.22;4994525;28;20484;-62
2022/04/10 06:36:05;;;;;;;12.38;5.63;;;;;;;12.85;42.41;100015.44;4997133;28;20058;-62
2022/04/10 06:38:32;;;;;;;5.03;1.75;;;;;;;13.31;41.57;100023.66;4997067;28;20397;-61
2022/04/10 06:40:58;;;;;;;8.40;1.80;;;;;;;13.66;41.02;100025.16;4996988;28;20054;-61
2022/04/10 06:43:25;;;;;;;7.53;2.28;;;;;;;13.81;39.52;100020.31;4997176;28;20058;-60
2022/04/10 06:45:51;;;;;;;5.40;1.52;;;;;;;13.89;38.96;100044.34;4996993;28;20065;-62
2022/04/10 06:48:19;;;;;;;6.85;1.25;;;;;;;14.05;39.35;100033.44;4996654;28;20046;-60
2022/04/10 06:50:45;;;;;;;6.45;1.90;;;;;;;14.44;39.31;100033.84;4996600;28;20352;-61
2022/04/10 06:53:12;;;;;;;8.50;2.15;;;;;;;14.74;38.21;100039.75;4996523;28;20050;-61
2022/04/10 06:55:39;;;;;;;4.70;1.83;;;;;;;14.68;37.51;100039.97;4996469;28;20050;-61
2022/04/10 06:58:05;;;;;;;6.43;1.95;;;;;;;14.58;37.62;100044.66;4996402;28;20487;-61
2022/04/10 07:00:32;;;;;;;7.25;1.80;;;;;;;14.63;37.91;100041.88;4996777;28;20065;-61
2022/04/10 07:03:01;;;;;;;9.02;2.50;;;;;;;14.58;38.13;100049.03;4996672;28;20053;-62
2022/04/10 07:05:29;;;;;;;4.70;1.73;;;;;;;14.80;37.59;100057.78;4996537;28;20065;-62
2022/04/10 07:07:55;;;;;;;6.93;1.80;;;;;;;14.68;36.88;100050.41;4996250;28;20050;-62
2022/04/10 07:10:22;;;;;;;6.70;1.70;;;;;;;14.34;37.80;100061.97;4995808;28;20050;-62
2022/04/10 07:12:49;;;;;;;9.15;2.60;;;;;;;14.55;37.34;100064.75;4996689;28;20054;-62
2022/04/10 07:15:15;;;;;;;4.97;1.95;;;;;;;14.84;37.26;100059.38;4996187;28;20138;-62
2022/04/10 07:17:41;;;;;;;6.72;1.85;;;;;;;15.24;36.63;100070.94;4996641;28;20053;-62
2022/04/10 07:20:09;;;;;;;6.63;1.63;;;;;;;15.56;36.16;100075.78;4996308;28;20487;-62
2022/04/10 07:25:22;;;;;;;5.63;1.77;;;;;;;16.33;35.00;100082.25;4996377;28;20057;-62
2022/04/10 07:27:49;;;;;;;5.50;1.58;;;;;;;16.10;34.24;100082.34;4996100;28;20503;-62
2022/04/10 07:30:16;;;;;;;5.82;1.83;;;;;;;16.25;34.32;100084.34;4991252;28;20054;-62
2022/04/10 07:32:42;;;;;;;9.15;2.03;;;;;;;15.67;34.85;100091.94;4976594;28;20069;-62
2022/04/10 07:35:09;;;;;;;12.38;2.42;;;;;;;14.90;36.00;100089.59;4976705;28;20054;-62
2022/04/10 07:37:39;;;;;;;6.72;1.80;;;;;;;15.13;36.52;100095.69;4977581;28;20046;-62
2022/04/10 07:40:07;;;;;;;6.30;1.90;;;;;;;15.11;36.17;100100.13;4995444;28;20463;-62
2022/04/10 07:42:38;;;;;;;8.05;1.70;;;;;;;14.65;36.17;100092.25;4991407;28;20050;-62
2022/04/10 07:45:07;;;;;;;5.88;1.58;;;;;;;14.75;36.38;100093.63;4987066;28;20503;-62
2022/04/10 07:47:34;;;;;;;5.95;1.70;;;;;;;14.96;36.29;100098.06;4995829;28;20050;-61
2022/04/10 07:50:01;;;;;;;4.63;1.70;;;;;;;15.29;36.07;100105.56;4995797;28;20054;-61
2022/04/10 07:52:27;;;;;;;6.03;1.60;;;;;;;15.37;35.73;100098.28;4995523;28;20054;-62
2022/04/10 07:54:55;;;;;;;7.20;1.77;;;;;;;15.55;35.22;100118.47;4995974;28;20054;-62
2022/04/10 07:57:22;;;;;;;7.93;2.38;;;;;;;15.60;35.14;100111.34;4995672;28;20050;-62
2022/04/10 07:59:49;;;;;;;6.45;2.17;;;;;;;15.47;35.21;100104.88;4995621;28;20054;-61
2022/04/10 08:02:15;;;;;;;5.72;2.03;;;;;;;15.27;35.19;100104.78;4994354;28;20050;-61
2022/04/10 08:04:42;;;;;;;9.55;2.10;;;;;;;15.14;34.97;100122.66;4993330;28;20065;-61
2022/04/10 08:07:08;;;;;;;10.90;2.00;;;;;;;15.13;35.36;100121.81;4994025;28;20042;-62
2022/04/10 08:09:36;;;;;;;6.22;2.20;;;;;;;15.26;35.86;100131.78;4994340;28;20184;-62
2022/04/10 08:12:05;;;;;;;8.63;2.40;;;;;;;15.48;34.96;100130.06;4994818;28;20054;-62
2022/04/10 08:14:33;;;;;;;5.57;2.30;;;;;;;15.53;34.66;100149.03;4994284;28;20081;-60
2022/04/10 08:16:59;;;;;;;8.50;1.88;;;;;;;15.37;34.87;100129.63;4989282;28;20050;-62
2022/04/10 08:19:26;;;;;;;6.03;2.03;;;;;;;15.38;34.71;100147.00;4992741;28;20058;-62
2022/04/10 08:21:52;;;;;;;6.13;2.20;;;;;;;15.68;33.98;100145.88;4995226;28;20057;-62
2022/04/10 08:24:19;;;;;;;6.93;2.38;;;;;;;15.86;33.36;100146.06;4995068;28;20073;-61
2022/04/10 08:26:45;;;;;;;8.65;2.10;;;;;;;16.19;33.06;100151.75;4990500;28;20050;-61
2022/04/10 08:29:13;;;;;;;6.93;1.73;;;;;;;15.98;32.53;100142.97;4988392;28;20050;-61
2022/04/10 08:31:40;;;;;;;5.25;2.00;;;;;;;15.98;32.87;100149.06;4987388;28;20732;-61
2022/04/10 08:34:06;;;;;;;8.57;1.90;;;;;;;16.12;32.72;100143.25;4994703;28;20047;-61
2022/04/10 08:36:35;;;;;;;6.63;2.05;;;;;;;16.26;32.05;100168.88;4986568;28;20112;-61
2022/04/10 08:39:03;;;;;;;7.70;2.00;;;;;;;16.23;31.38;100180.31;4986048;28;20133;-61
2022/04/10 08:41:33;;;;;;;7.00;1.92;;;;;;;16.00;32.01;100167.28;4983980;28;20423;-61
2022/04/10 08:44:02;;;;;;;5.85;2.00;;;;;;;15.56;32.71;100176.78;4985994;28;20055;-59
2022/04/10 08:46:30;;;;;;;5.38;1.90;;;;;;;15.13;33.02;100174.03;4986340;28;20100;-60
2022/04/10 08:48:58;;;;;;;6.10;2.05;;;;;;;14.84;34.22;100187.22;4986152;28;20057;-60
2022/04/10 08:51:28;;;;;;;7.63;2.15;;;;;;;14.42;35.30;100197.28;4986420;28;20050;-61
2022/04/10 08:53:55;;;;;;;8.25;2.50;;;;;;;13.90;36.46;100191.94;4985825;28;20077;-61
2022/04/10 08:56:24;;;;;;;8.25;2.63;;;;;;;13.87;36.67;100207.69;4984291;28;20380;-60
2022/04/10 08:58:51;;;;;;;10.70;2.45;;;;;;;13.69;37.33;100197.81;4989460;28;20353;-62
2022/04/10 09:01:20;;;;;;;7.28;1.90;;;;;;;13.70;37.42;100199.53;4994118;28;20057;-62
2022/04/10 09:03:48;;;;;;;8.30;2.03;;;;;;;13.67;37.88;100204.81;4993552;28;20518;-62
2022/04/10 09:06:15;;;;;;;6.40;1.92;;;;;;;13.52;37.01;100185.25;4993641;28;20054;-60
2022/04/10 09:08:44;;;;;;;7.28;2.15;;;;;;;13.44;36.95;100202.00;4991384;28;20058;-61
2022/04/10 09:11:12;;;;;;;9.95;1.95;;;;;;;13.42;36.53;100203.81;4986590;28;20051;-62
2022/04/10 09:13:40;;;;;;;7.45;2.03;;;;;;;13.37;35.59;100205.69;4992976;28;20042;-62
2022/04/10 09:16:09;;;;;;;7.07;1.60;;;;;;;12.97;36.25;100191.09;4991463;28;20384;-62
2022/04/10 09:18:51;;;;;;;7.72;2.05;;;;;;;13.07;36.70;100213.41;4992094;28;20054;-62
2022/04/10 09:21:18;;;;;;;6.38;2.03;;;;;;;13.04;36.30;100210.91;4992378;28;20054;-62
2022/04/10 09:23:58;;;;;;;6.03;1.63;;;;;;;13.02;37.07;100223.09;4992076;28;20054;-61
2022/04/10 09:26:25;;;;;;;7.55;2.00;;;;;;;13.09;36.05;100227.25;4992123;28;20065;-62
2022/04/10 09:28:52;;;;;;;5.78;1.17;;;;;;;12.69;36.03;100213.53;4992584;28;20054;-62
2022/04/10 09:31:31;;;;;;;10.85;1.67;;;;;;;12.65;36.67;100225.75;4992834;28;20061;-62
2022/04/10 09:34:07;;;;;;;8.75;1.98;;;;;;;12.40;36.88;100220.28;4993115;28;20060;-62
2022/04/10 09:36:35;;;;;;;4.53;1.80;;;;;;;12.21;37.76;100235.47;4992954;28;20058;-62
2022/04/10 09:39:06;;;;;;;6.40;2.33;;;;;;;11.97;39.49;100238.63;4992780;28;20059;-62
2022/04/10 09:41:33;;;;;;;7.15;1.70;;;;;;;11.89;42.39;100233.56;4993607;28;20463;-62
2022/04/10 09:44:01;;;;;;;4.50;1.50;;;;;;;12.02;42.94;100243.72;4994044;28;20061;-61
2022/04/10 09:46:29;;;;;;;4.18;1.42;;;;;;;12.23;43.36;100240.63;4993612;28;20078;-62
2022/04/10 09:48:56;;;;;;;8.65;1.63;;;;;;;12.31;42.04;100233.50;4993665;28;20050;-62
2022/04/10 09:51:24;;;;;;;5.50;2.03;;;;;;;12.44;42.31;100247.06;4993980;28;20058;-62
2022/04/10 09:54:04;;;;;;;5.45;1.40;;;;;;;12.71;42.05;100250.75;4993507;28;20790;-62
2022/04/10 09:56:31;;;;;;;5.95;1.95;;;;;;;12.95;41.00;100244.94;4993623;28;20058;-62
2022/04/10 09:59:00;;;;;;;4.85;1.58;;;;;;;13.01;40.19;100251.75;4994008;28;20050;-62
2022/04/10 10:01:27;;;;;;;6.43;1.35;;;;;;;12.97;40.11;100245.75;4993659;28;20088;-61
2022/04/10 10:03:55;;;;;;;5.55;2.05;;;;;;;13.01;39.86;100254.34;4990613;28;20074;-61
2022/04/10 10:06:24;;;;;;;6.53;1.50;;;;;;;13.03;39.63;100250.81;4982868;28;20388;-61
2022/04/10 10:08:51;;;;;;;6.97;1.73;;;;;;;12.99;40.08;100276.94;4994887;28;20078;-61
2022/04/10 10:11:19;;;;;;;8.55;1.70;;;;;;;12.44;47.67;100280.84;4994205;28;20055;-61
2022/04/10 10:13:47;;;;;;;5.25;1.33;;;;;;;11.99;50.65;100287.06;4990202;28;20129;-61
2022/04/10 10:16:14;;;;;;;10.00;2.40;;;;;;;11.57;51.31;100272.31;4992405;28;20069;-61
2022/04/10 10:18:41;;;;;;;6.40;1.70;;;;;;;11.46;50.71;100282.03;4986630;28;20038;-61
2022/04/10 10:21:09;;;;;;;7.50;1.65;;;;;;;11.41;51.08;100276.91;4987874;28;20081;-61
2022/04/10 10:23:37;;;;;;;5.40;1.40;;;;;;;11.52;51.06;100275.00;4991763;28;20054;-61
2022/04/10 10:26:16;;;;;;;8.90;2.15;;;;;;;11.65;49.76;100260.88;4997367;28;20054;-61
2022/04/10 10:29:10;;;;;;;7.78;1.92;;;;;;;11.81;48.57;100264.03;4997393;28;20050;-61
2022/04/10 10:31:54;;;;;;;6.70;1.85;;;;;;;11.95;47.25;100267.19;4996938;28;20460;-61
2022/04/10 10:34:25;;;;;;;4.95;1.55;;;;;;;11.99;44.08;100262.81;4997421;28;20065;-61
2022/04/10 10:36:53;;;;;;;6.43;2.28;;;;;;;12.02;42.86;100267.94;4994341;28;20047;-61
2022/04/10 10:39:22;;;;;;;7.05;1.63;;;;;;;12.04;43.41;100273.97;4993207;28;20407;-61
2022/04/10 10:41:51;;;;;;;6.30;2.33;;;;;;;12.10;43.44;100276.44;4995061;28;20475;-61
2022/04/10 10:44:41;;;;;;;6.43;1.55;;;;;;;12.07;42.20;100293.81;4997050;28;20080;-61
2022/04/10 10:47:17;;;;;;;5.18;1.67;;;;;;;12.04;42.33;100286.09;4996792;28;20400;-61
2022/04/10 10:49:45;;;;;;;4.65;1.23;;;;;;;11.98;42.24;100285.34;4997210;28;20069;-61
2022/04/10 10:52:14;;;;;;;6.45;1.65;;;;;;;12.10;43.43;100297.22;4996960;28;20145;-60
2022/04/10 10:54:45;;;;;;;8.15;1.90;;;;;;;12.27;42.51;100291.63;4991860;28;20051;-61
2022/04/10 10:57:27;;;;;;;5.55;1.48;;;;;;;12.41;39.89;100286.97;4996747;28;20058;-61
2022/04/10 11:00:04;;;;;;;5.80;1.70;;;;;;;12.48;40.32;100298.09;4996864;28;20363;-61
2022/04/10 11:02:33;;;;;;;4.65;1.55;;;;;;;12.60;39.99;100283.09;4996876;28;20093;-61
2022/04/10 11:05:00;;;;;;;5.05;1.60;;;;;;;12.62;38.73;100263.09;4996380;28;20504;-61
2022/04/10 11:07:27;;;;;;;5.57;1.60;;;;;;;12.65;37.41;100272.56;4996623;28;20062;-61
2022/04/10 11:09:59;;;;;;;7.28;1.45;;;;;;;12.59;36.90;100293.53;4996242;28;20153;-61
2022/04/10 11:12:31;;;;;;;6.15;1.42;;;;;;;12.63;37.05;100284.75;4996317;28;20054;-61
2022/04/10 11:15:01;;;;;;;5.10;1.65;;;;;;;12.70;37.31;100280.25;4995500;28;20046;-61
2022/04/10 11:17:30;;;;;;;4.57;1.08;;;;;;;12.72;35.03;100286.28;4996765;28;20058;-61
2022/04/10 11:20:01;;;;;;;4.90;1.17;;;;;;;12.71;34.56;100279.38;4996484;28;20046;-60
2022/04/10 11:22:33;;;;;;;6.90;1.48;;;;;;;12.69;35.27;100278.56;4984507;28;20065;-60
2022/04/10 11:25:05;;;;;;;6.20;1.48;;;;;;;12.68;34.60;100282.03;4976853;28;20069;-60
2022/04/10 11:27:42;;;;;;;5.07;1.48;;;;;;;12.70;34.78;100290.66;4976651;28;20050;-61
2022/04/10 11:30:11;;;;;;;4.25;1.30;;;;;;;12.72;34.47;100294.94;4978439;28;20050;-61
2022/04/10 11:32:43;;;;;;;8.25;1.23;;;;;;;12.77;34.47;100293.06;4996361;28;20061;-61
2022/04/10 11:35:22;;;;;;;4.75;0.90;;;;;;;12.86;34.70;100312.81;4995620;28;20348;-61
2022/04/10 11:37:50;;;;;;;4.38;0.80;;;;;;;12.95;34.30;100291.75;4996195;28;20054;-61
2022/04/10 11:40:23;;;;;;;5.88;1.40;;;;;;;12.96;34.05;100296.91;4996121;28;20349;-61
2022/04/10 11:42:51;;;;;;;4.25;1.30;;;;;;;12.96;34.42;100309.06;4996156;28;20054;-61